Terminal Aerodrome Forecast
Issued by NWS Wilmington, OH

Current Version | Previous Version | Graphics & Text | Print | Product List | Glossary On
Versions: 1 2 3 4 5 6 7 8 9 10 11 12 13 14 15 16 17
786
FTUS41 KILN 022320
TAFILN
TAF
KILN 022320Z 0300/0324 16014G24KT P6SM VCTS OVC060CB WS020/19060KT
      TEMPO 0300/0303 5SM -SHRA OVC035
     FM030300 17016G26KT 4SM -SHRA BR VCTS OVC035CB WS020/19060KT
      TEMPO 0303/0307 2SM -SHRA OVC025
     FM030900 18016G26KT 5SM BR VCSH OVC015
     FM031300 22012G22KT P6SM BKN025
     FM031600 24018G28KT P6SM BKN035=

USA.gov is the U.S. government's official web portal to all federal, state and local government web resources and services.